Time;durP1;ratioP1;P1;durP2;ratioP2;P2;SDS_P1;SDS_P2;PMS_P1;PMS_P2;Temp;Humidity;BMP_temperature;BMP_pressure;BME280_temperature;BME280_humidity;BME280_pressure;Samples;Min_cycle;Max_cycle;Signal;HPM_P1;HPM_P2
2021/10/29 00:02:29;;;;;;;25.60;22.80;;;;;;;9.48;65.45;99878.56;5128126;22;20235;-80
2021/10/29 00:05:48;;;;;;;25.13;22.53;;;;;;;9.42;65.55;99874.88;5086491;22;20239;-79
2021/10/29 00:08:41;;;;;;;27.37;24.33;;;;;;;9.37;65.69;99877.34;5123142;22;20242;-79
2021/10/29 00:11:25;;;;;;;25.83;23.13;;;;;;;9.36;65.73;99874.84;5123898;22;20219;-79
2021/10/29 00:14:10;;;;;;;26.60;23.80;;;;;;;9.40;66.23;99876.91;5123121;22;20288;-79
2021/10/29 00:17:43;;;;;;;26.80;23.90;;;;;;;9.35;65.75;99854.50;5275386;23;20219;-80
2021/10/29 00:20:47;;;;;;;25.60;22.87;;;;;;;9.51;65.54;99868.28;5209905;22;20275;-79
2021/10/29 00:23:34;;;;;;;27.00;23.97;;;;;;;9.59;65.24;99870.75;5086760;28;20195;-80
2021/10/29 00:26:25;;;;;;;25.93;23.23;;;;;;;9.42;65.71;99872.19;5170444;22;20238;-80
2021/10/29 00:29:26;;;;;;;26.73;23.97;;;;;;;9.35;66.15;99878.56;5189391;22;20231;-79
2021/10/29 00:32:23;;;;;;;25.97;23.27;;;;;;;9.34;65.80;99859.00;5177843;22;20252;-79
2021/10/29 00:35:23;;;;;;;25.80;23.03;;;;;;;9.38;65.73;99875.50;5083887;28;20256;-79
2021/10/29 00:41:26;;;;;;;28.03;23.70;;;;;;;9.23;65.89;99862.31;5102259;22;20331;-79
2021/10/29 00:44:54;;;;;;;26.13;23.37;;;;;;;9.29;65.77;99864.16;5173099;22;20228;-79
2021/10/29 00:47:51;;;;;;;26.10;22.50;;;;;;;9.32;65.80;99862.94;5110280;22;20236;-77
2021/10/29 00:51:24;;;;;;;24.80;22.20;;;;;;;9.18;65.66;99868.28;5114643;22;20218;-79
2021/10/29 00:54:07;;;;;;;24.20;21.67;;;;;;;8.97;66.31;99871.13;5106112;22;20663;-79
2021/10/29 00:56:40;;;;;;;25.13;22.47;;;;;;;8.77;66.44;99854.25;5113998;22;20236;-79
2021/10/29 00:59:42;;;;;;;25.83;23.20;;;;;;;8.69;65.87;99849.91;5065729;22;20230;-79
2021/10/29 01:02:34;;;;;;;26.23;23.43;;;;;;;8.43;66.84;99855.19;5108065;22;20225;-78
2021/10/29 01:05:50;;;;;;;25.67;23.03;;;;;;;8.35;67.08;99858.81;5063722;22;20229;-78
2021/10/29 01:08:28;;;;;;;26.87;23.60;;;;;;;8.32;67.37;99858.41;5097350;22;20291;-79
2021/10/29 01:11:04;;;;;;;25.17;22.67;;;;;;;8.29;67.15;99854.31;5098656;28;20243;-79
2021/10/29 01:14:12;;;;;;;25.67;23.03;;;;;;;8.19;68.06;99850.31;5095387;23;20256;-79
2021/10/29 01:16:58;;;;;;;26.00;22.93;;;;;;;8.06;67.94;99851.09;5052246;23;21263;-79
2021/10/29 01:20:02;;;;;;;25.00;22.47;;;;;;;7.98;68.15;99838.72;5064007;23;20226;-80
2021/10/29 01:23:09;;;;;;;26.17;23.47;;;;;;;7.94;68.52;99847.31;5053743;28;20197;-79
2021/10/29 01:25:44;;;;;;;26.37;23.67;;;;;;;7.96;68.75;99846.09;5118449;22;20228;-80
2021/10/29 01:28:49;;;;;;;27.83;23.93;;;;;;;7.76;68.67;99829.16;5121582;22;20216;-78
2021/10/29 01:31:37;;;;;;;27.73;23.17;;;;;;;7.88;69.13;99842.78;5099699;28;20234;-79
2021/10/29 01:34:23;;;;;;;25.97;23.27;;;;;;;7.86;68.92;99839.47;5077786;23;20210;-80
2021/10/29 01:36:56;;;;;;;26.47;23.53;;;;;;;7.76;68.99;99834.50;5098516;28;20235;-79
2021/10/29 01:40:04;;;;;;;26.70;23.97;;;;;;;7.69;69.27;99824.81;5105939;22;20201;-79
2021/10/29 01:42:51;;;;;;;26.77;23.97;;;;;;;7.61;69.76;99841.78;5081297;23;20192;-79
2021/10/29 01:45:26;;;;;;;27.00;24.20;;;;;;;7.44;69.73;99827.94;5133599;22;20255;-80
2021/10/29 01:48:06;;;;;;;26.83;23.23;;;;;;;7.46;70.22;99819.75;5197313;22;20217;-79
2021/10/29 01:50:42;;;;;;;25.97;23.03;;;;;;;7.43;69.67;99830.78;5081575;28;20230;-79
2021/10/29 01:53:25;;;;;;;27.60;24.70;;;;;;;7.41;69.84;99831.00;5109343;23;20235;-80
2021/10/29 01:56:23;;;;;;;27.10;24.10;;;;;;;7.38;69.64;99831.38;5069241;28;20179;-79
2021/10/29 01:59:48;;;;;;;25.40;22.70;;;;;;;7.49;69.65;99825.50;5132058;22;20208;-79
2021/10/29 02:03:14;;;;;;;27.33;22.73;;;;;;;7.37;69.92;99826.25;5152660;22;20223;-77
2021/10/29 02:06:42;;;;;;;26.00;23.23;;;;;;;7.42;69.93;99823.81;5073663;23;20247;-79
2021/10/29 02:09:27;;;;;;;26.33;22.77;;;;;;;7.36;70.14;99816.59;5129128;22;20292;-79
2021/10/29 02:12:22;;;;;;;25.43;22.83;;;;;;;7.25;69.89;99807.28;5115594;28;20268;-79
2021/10/29 02:14:58;;;;;;;25.87;22.67;;;;;;;7.22;70.04;99821.00;5204873;22;20216;-79
2021/10/29 02:17:41;;;;;;;25.10;22.13;;;;;;;7.34;69.79;99815.97;5073281;23;20221;-79
2021/10/29 02:20:18;;;;;;;26.10;22.93;;;;;;;7.27;69.72;99818.59;5078994;23;20238;-79
2021/10/29 02:22:56;;;;;;;23.53;20.63;;;;;;;7.49;68.95;99816.69;5079105;23;20252;-80
2021/10/29 02:25:46;;;;;;;23.93;21.27;;;;;;;7.52;68.78;99816.28;5086176;23;20228;-80
2021/10/29 02:28:42;;;;;;;22.10;19.60;;;;;;;7.83;67.76;99819.38;5035987;28;20289;-80
2021/10/29 02:31:41;;;;;;;23.90;20.67;;;;;;;7.79;66.65;99796.75;5061736;22;20215;-79
2021/10/29 02:35:22;;;;;;;24.90;20.00;;;;;;;8.03;66.62;99810.59;5124971;22;20231;-79
2021/10/29 02:39:03;;;;;;;23.23;18.73;;;;;;;8.23;65.39;99809.69;5130665;22;20215;31
2021/10/29 02:42:17;;;;;;;25.17;19.53;;;;;;;8.40;64.61;99789.63;5065557;22;20213;-79
2021/10/29 02:45:21;;;;;;;21.53;19.17;;;;;;;8.48;64.10;99807.34;5076664;28;20523;-79
2021/10/29 02:47:58;;;;;;;23.73;19.87;;;;;;;8.65;63.79;99813.09;5090524;22;20251;-79
2021/10/29 02:50:40;;;;;;;23.80;17.93;;;;;;;8.66;63.46;99807.56;5118434;22;20224;-79
2021/10/29 02:53:16;;;;;;;22.57;18.60;;;;;;;8.66;63.70;99809.41;5088807;23;20227;-79
2021/10/29 02:56:24;;;;;;;19.80;17.70;;;;;;;8.71;63.67;99810.47;5201487;22;20237;-79
2021/10/29 02:59:27;;;;;;;20.33;18.10;;;;;;;8.77;62.86;99808.84;5123950;22;20283;-80
2021/10/29 03:02:13;;;;;;;21.00;17.93;;;;;;;8.75;62.60;99806.34;5101766;23;20236;-79
2021/10/29 03:04:57;;;;;;;20.63;18.43;;;;;;;8.79;62.97;99815.59;5096561;28;20197;-80
2021/10/29 03:07:51;;;;;;;21.27;18.30;;;;;;;8.74;62.74;99806.56;5097885;28;20169;-80
2021/10/29 03:10:25;;;;;;;22.37;18.60;;;;;;;8.69;62.70;99799.16;5102778;22;20300;-79
2021/10/29 03:13:59;;;;;;;21.03;18.50;;;;;;;8.77;63.00;99806.16;5097812;22;20321;-79
2021/10/29 03:17:18;;;;;;;22.50;18.73;;;;;;;8.76;62.75;99804.50;5070430;23;20225;-79
2021/10/29 03:20:34;;;;;;;22.80;19.07;;;;;;;8.74;62.52;99811.88;5110838;22;20219;-78
2021/10/29 03:23:31;;;;;;;21.53;18.17;;;;;;;8.68;63.01;99804.69;5094232;22;20225;-79
2021/10/29 03:30:00;;;;;;;22.50;18.73;;;;;;;8.59;62.97;99803.22;4995933;28;20258;-79
2021/10/29 03:32:50;;;;;;;21.50;18.77;;;;;;;8.48;63.79;99791.31;4996797;28;20239;-79
2021/10/29 03:36:16;;;;;;;21.63;18.80;;;;;;;8.43;63.34;99801.78;5100804;22;20239;-79
2021/10/29 03:39:12;;;;;;;22.23;18.90;;;;;;;8.38;64.14;99805.03;5109206;22;20249;-79
2021/10/29 03:42:37;;;;;;;20.73;18.50;;;;;;;8.23;63.85;99782.16;5097781;22;20265;-80
2021/10/29 03:46:17;;;;;;;21.83;19.43;;;;;;;8.37;64.51;99805.25;5114612;22;20220;-78
2021/10/29 03:52:28;;;;;;;22.53;20.13;;;;;;;8.38;64.32;99797.03;5130245;22;20259;-80
2021/10/29 03:55:40;;;;;;;22.37;19.97;;;;;;;8.28;64.60;99803.75;5139867;22;20239;-79
2021/10/29 03:58:49;;;;;;;25.13;21.33;;;;;;;8.32;64.68;99802.34;5133834;22;20224;31
2021/10/29 04:02:13;;;;;;;24.70;21.07;;;;;;;8.16;64.68;99802.69;4994400;28;20236;-79
2021/10/29 04:05:21;;;;;;;23.07;20.53;;;;;;;8.02;65.37;99795.66;5123851;22;20224;-79
2021/10/29 04:09:02;;;;;;;24.23;21.30;;;;;;;8.03;65.53;99803.44;5121519;22;20247;-78
2021/10/29 04:12:08;;;;;;;23.13;20.67;;;;;;;7.91;66.43;99811.19;5101669;22;20255;-79
2021/10/29 04:15:05;;;;;;;25.37;21.47;;;;;;;7.77;66.35;99793.47;5143090;22;20251;-78
2021/10/29 04:18:14;;;;;;;24.73;20.60;;;;;;;7.87;65.37;99799.28;5121778;22;20261;-79
2021/10/29 04:20:49;;;;;;;23.60;20.47;;;;;;;7.83;65.88;99797.19;5129532;22;20250;-79
2021/10/29 04:27:30;;;;;;;25.83;21.00;;;;;;;7.73;65.97;99804.72;5116009;22;20239;-79
2021/10/29 04:30:18;;;;;;;24.37;20.50;;;;;;;7.73;66.03;99807.41;5144401;22;20224;-79
2021/10/29 04:32:59;;;;;;;24.07;20.27;;;;;;;7.69;65.97;99809.66;5092276;22;20248;-78
2021/10/29 04:35:56;;;;;;;23.90;20.63;;;;;;;7.76;65.60;99799.00;5290905;22;20207;-80
2021/10/29 04:39:11;;;;;;;22.83;19.37;;;;;;;7.74;66.22;99811.72;5201915;22;20242;-79
2021/10/29 04:42:05;;;;;;;23.57;19.43;;;;;;;7.69;66.00;99801.66;5109685;22;20751;-80
2021/10/29 04:44:50;;;;;;;21.30;19.10;;;;;;;7.66;66.55;99802.03;5112996;28;20255;-78
2021/10/29 04:47:25;;;;;;;26.73;20.77;;;;;;;7.53;66.11;99783.28;5112835;28;20238;-80
2021/10/29 04:50:36;;;;;;;21.93;19.23;;;;;;;7.67;66.07;99801.00;5121780;22;20214;-78
2021/10/29 04:53:17;;;;;;;24.03;19.73;;;;;;;7.68;65.69;99791.16;5088024;23;20220;-80
2021/10/29 04:55:52;;;;;;;24.60;20.73;;;;;;;7.77;65.51;99800.66;5111708;28;20296;-80
2021/10/29 04:58:37;;;;;;;23.43;20.50;;;;;;;7.70;66.18;99800.59;5112348;28;20259;-79
2021/10/29 05:01:10;;;;;;;23.20;20.07;;;;;;;7.67;65.89;99798.34;5119594;22;20234;-79
2021/10/29 05:03:50;;;;;;;22.83;20.13;;;;;;;7.80;65.09;99794.91;5185489;23;20253;-80
2021/10/29 05:06:18;;;;;;;24.70;20.83;;;;;;;7.70;66.04;99797.94;5119502;22;20655;-80
2021/10/29 05:08:49;;;;;;;23.83;20.63;;;;;;;7.63;66.22;99797.09;5112108;23;20263;-79
2021/10/29 05:11:22;;;;;;;26.43;20.93;;;;;;;7.70;66.15;99799.81;5089859;23;20228;-80
2021/10/29 05:14:07;;;;;;;24.27;21.13;;;;;;;7.56;66.50;99803.41;5086964;23;20231;-80
2021/10/29 05:16:36;;;;;;;25.00;21.83;;;;;;;7.60;66.45;99792.16;5090343;22;20232;-80
2021/10/29 05:19:20;;;;;;;24.67;21.17;;;;;;;7.57;66.57;99800.53;5098987;22;20285;-79
2021/10/29 05:22:02;;;;;;;27.03;21.30;;;;;;;7.40;66.93;99800.03;5078816;23;20316;-78
2021/10/29 05:24:53;;;;;;;26.10;20.37;;;;;;;7.39;67.71;99802.88;5053210;28;20261;-79
2021/10/29 05:28:22;;;;;;;28.40;21.40;;;;;;;7.37;67.40;99796.94;5072200;28;20177;-80
2021/10/29 05:31:03;;;;;;;25.23;21.07;;;;;;;7.44;66.98;99805.78;5071686;28;20221;-79
2021/10/29 05:33:51;;;;;;;25.67;20.40;;;;;;;7.42;66.88;99794.47;5074463;23;20232;-78
2021/10/29 05:36:58;;;;;;;24.83;19.70;;;;;;;7.41;66.78;99792.84;5200179;23;20232;-79
2021/10/29 05:40:08;;;;;;;24.33;20.87;;;;;;;7.43;66.75;99810.28;5123364;22;20208;-79
2021/10/29 05:43:03;;;;;;;23.57;20.87;;;;;;;7.50;66.64;99803.19;5101699;28;20223;-79
2021/10/29 05:46:08;;;;;;;27.50;21.87;;;;;;;7.57;66.89;99797.88;5212570;22;20239;-78
2021/10/29 05:48:42;;;;;;;26.03;21.37;;;;;;;7.61;66.58;99806.28;5119138;22;20236;-79
2021/10/29 05:51:48;;;;;;;24.60;20.93;;;;;;;7.58;67.15;99814.69;5111133;22;20225;-78
2021/10/29 05:55:02;;;;;;;24.17;21.57;;;;;;;7.60;66.14;99807.34;5131587;22;20235;-78
2021/10/29 05:58:08;;;;;;;29.97;23.13;;;;;;;7.51;66.52;99815.47;5099428;22;20225;-79
2021/10/29 06:01:14;;;;;;;25.70;22.07;;;;;;;7.61;66.52;99806.28;5106156;22;20221;-80
2021/10/29 06:05:00;;;;;;;24.83;21.53;;;;;;;7.74;66.14;99820.56;5055831;28;20229;-79
2021/10/29 06:07:53;;;;;;;25.40;21.73;;;;;;;7.68;66.07;99817.84;5058535;23;20237;31
2021/10/29 06:10:42;;;;;;;24.43;21.07;;;;;;;7.63;66.71;99820.25;5067196;23;20255;-79
2021/10/29 06:13:55;;;;;;;27.83;22.30;;;;;;;7.60;66.68;99834.81;5086950;22;20196;-78
2021/10/29 06:16:39;;;;;;;25.33;21.83;;;;;;;7.71;65.86;99807.59;5137643;22;20211;-78
2021/10/29 06:19:19;;;;;;;26.30;22.27;;;;;;;7.92;65.79;99828.84;5094626;28;20221;-79
2021/10/29 06:26:01;;;;;;;26.80;19.80;;;;;;;8.08;65.87;99835.69;5094209;22;20228;-79
2021/10/29 06:29:07;;;;;;;24.30;20.20;;;;;;;8.14;65.98;99836.75;5117280;28;20152;-79
2021/10/29 06:31:42;;;;;;;24.27;20.50;;;;;;;8.29;65.40;99837.44;5151767;22;20230;-79
2021/10/29 06:34:13;;;;;;;23.03;20.23;;;;;;;8.45;64.68;99841.59;5097362;22;20222;-80
2021/10/29 06:36:42;;;;;;;22.80;19.73;;;;;;;8.72;63.65;99838.81;5080863;23;20190;-78
2021/10/29 06:39:35;;;;;;;25.53;20.13;;;;;;;8.91;63.21;99834.53;5106086;23;20230;-78
2021/10/29 06:42:30;;;;;;;21.20;18.93;;;;;;;9.11;62.28;99826.53;5122871;22;20209;-78
2021/10/29 07:01:07;;;;;;;22.27;19.13;;;;;;;10.25;58.85;99841.16;5000031;28;20263;-79
2021/10/29 07:04:09;;;;;;;22.40;19.40;;;;;;;10.29;58.90;99830.84;5115797;23;20228;-79
2021/10/29 07:41:49;;;;;;;23.80;20.33;;;;;;;11.56;54.15;99804.59;5210346;22;20273;-79
2021/10/29 07:44:31;;;;;;;23.67;19.80;;;;;;;11.64;54.19;99812.34;5098443;28;20220;-79
2021/10/29 07:47:12;;;;;;;26.47;20.43;;;;;;;11.72;53.78;99808.53;5119444;23;20296;-79
2021/10/29 07:49:47;;;;;;;23.20;20.20;;;;;;;11.77;53.15;99808.72;5092831;28;20262;-79
2021/10/29 07:52:17;;;;;;;23.07;19.87;;;;;;;11.90;53.56;99822.81;5092250;28;20264;-79
2021/10/29 07:54:51;;;;;;;23.83;19.37;;;;;;;11.93;53.29;99810.81;5110856;28;20247;-79
2021/10/29 07:57:19;;;;;;;24.57;21.20;;;;;;;12.05;53.43;99817.06;5109323;28;20236;-79
2021/10/29 07:59:56;;;;;;;23.80;21.23;;;;;;;12.07;53.11;99816.88;5116816;22;20240;-79
2021/10/29 08:02:33;;;;;;;28.10;21.80;;;;;;;12.15;52.66;99820.06;5095685;28;20227;-79
2021/10/29 08:05:15;;;;;;;25.83;21.43;;;;;;;12.13;52.92;99824.03;5114073;28;20247;-79
2021/10/29 08:07:48;;;;;;;30.03;22.27;;;;;;;12.26;52.27;99821.19;5113600;28;20224;-79
2021/10/29 08:10:40;;;;;;;25.60;21.60;;;;;;;12.32;52.21;99813.03;5113548;28;20235;-79
2021/10/29 08:13:28;;;;;;;25.00;22.30;;;;;;;12.28;52.82;99813.69;5113306;28;20211;-80
2021/10/29 08:16:23;;;;;;;24.83;21.90;;;;;;;12.34;53.06;99810.13;5112694;28;20291;-79
2021/10/29 08:19:21;;;;;;;26.00;21.47;;;;;;;12.35;52.67;99809.91;5125947;22;20380;-79
2021/10/29 08:21:51;;;;;;;24.30;21.70;;;;;;;12.43;52.42;99805.25;5126824;22;20258;-78
2021/10/29 08:24:22;;;;;;;24.63;21.57;;;;;;;12.53;52.69;99803.66;5068692;23;20224;-79
2021/10/29 08:27:03;;;;;;;28.50;22.90;;;;;;;12.51;52.73;99807.59;5096760;22;20232;-79
2021/10/29 08:29:43;;;;;;;25.40;22.77;;;;;;;12.46;53.28;99788.69;5131630;22;20227;-78
2021/10/29 08:32:34;;;;;;;24.47;21.80;;;;;;;12.46;53.47;99808.28;5168893;22;20216;-79
2021/10/29 08:35:13;;;;;;;27.30;23.30;;;;;;;12.37;53.57;99804.28;5094033;23;20228;-79
2021/10/29 08:37:53;;;;;;;27.37;24.00;;;;;;;12.34;53.37;99808.25;5184741;22;20236;-79
2021/10/29 08:40:25;;;;;;;28.37;23.80;;;;;;;12.28;54.16;99794.91;5071554;23;20225;-79
2021/10/29 08:43:11;;;;;;;28.63;23.70;;;;;;;12.23;54.93;99811.69;5054543;28;20185;-79
2021/10/29 08:45:58;;;;;;;28.70;25.47;;;;;;;12.06;55.04;99797.25;5085378;23;20220;-79
2021/10/29 08:48:37;;;;;;;29.63;24.53;;;;;;;12.14;55.28;99801.47;5098319;23;20231;31
2021/10/29 08:51:26;;;;;;;29.70;25.47;;;;;;;11.93;54.98;99788.53;4952906;28;20225;-79
2021/10/29 08:53:59;;;;;;;30.47;25.17;;;;;;;11.92;55.97;99795.75;4954438;29;20241;-79
2021/10/29 08:56:29;;;;;;;29.50;25.97;;;;;;;11.86;56.78;99791.28;5073657;23;20236;-79
2021/10/29 08:59:34;;;;;;;30.27;26.80;;;;;;;11.94;56.26;99796.38;5075719;22;20312;-79
2021/10/29 09:05:33;;;;;;;29.17;25.93;;;;;;;12.09;56.65;99794.09;5083919;22;20241;-79
2021/10/29 09:08:40;;;;;;;31.00;26.83;;;;;;;12.10;57.44;99793.06;5035618;28;20228;-79
2021/10/29 09:33:13;;;;;;;27.93;22.83;;;;;;;13.18;53.36;99777.66;5074232;28;20648;-79
2021/10/29 09:36:03;;;;;;;26.27;22.20;;;;;;;13.27;52.79;99777.31;4606136;22;13411510;-79
2021/10/29 09:38:47;;;;;;;26.67;23.77;;;;;;;13.43;52.78;99792.75;5042354;22;20222;-79
2021/10/29 09:42:07;;;;;;;29.60;24.30;;;;;;;13.53;52.95;99782.25;5031430;23;20226;-79
2021/10/29 09:45:20;;;;;;;27.30;23.47;;;;;;;13.71;52.57;99776.72;5069166;28;20210;-79
2021/10/29 09:49:04;;;;;;;26.27;23.53;;;;;;;13.73;51.81;99781.84;5051073;28;20218;-79
2021/10/29 09:57:43;;;;;;;27.23;23.70;;;;;;;13.84;52.23;99772.94;5034131;28;20237;-79
2021/10/29 10:00:44;;;;;;;26.73;23.93;;;;;;;13.97;52.01;99772.66;5057161;23;20237;-79
2021/10/29 10:03:34;;;;;;;26.63;23.37;;;;;;;14.18;51.25;99766.66;5062774;23;20212;31
2021/10/29 10:06:29;;;;;;;30.67;23.63;;;;;;;14.10;51.17;99758.94;5051388;23;20256;-79
2021/10/29 10:09:18;;;;;;;26.50;23.37;;;;;;;14.22;51.27;99753.50;5075677;23;20238;-77
2021/10/29 10:11:56;;;;;;;27.40;24.50;;;;;;;14.32;51.11;99754.53;5078243;23;20224;-76
2021/10/29 10:15:01;;;;;;;25.60;23.00;;;;;;;14.46;50.58;99761.28;5102422;22;20280;-76
2021/10/29 10:17:42;;;;;;;27.57;24.60;;;;;;;14.31;50.48;99733.22;5119677;23;20235;-79
2021/10/29 10:20:11;;;;;;;26.33;23.50;;;;;;;14.50;50.98;99743.59;5095126;28;20525;-79
2021/10/29 10:22:50;;;;;;;27.40;24.33;;;;;;;14.69;50.45;99746.88;5120286;22;20232;-77
2021/10/29 10:26:07;;;;;;;27.07;24.33;;;;;;;14.74;50.63;99752.38;5113326;28;20254;-79
2021/10/29 10:44:19;;;;;;;27.63;24.73;;;;;;;15.10;50.47;99720.56;5081559;23;20197;-78
2021/10/29 10:46:49;;;;;;;26.07;23.43;;;;;;;15.05;50.32;99728.56;5075566;22;20247;-78
2021/10/29 10:49:49;;;;;;;26.27;23.57;;;;;;;15.15;50.03;99709.84;5042356;23;20229;-79
2021/10/29 10:55:16;;;;;;;25.97;23.20;;;;;;;15.20;49.61;99726.94;5115989;28;20242;-77
2021/10/29 10:58:42;;;;;;;26.37;23.63;;;;;;;15.35;49.99;99705.53;5115814;28;20224;-79
2021/10/29 11:07:37;;;;;;;25.43;22.73;;;;;;;15.62;49.44;99699.47;5114276;28;20227;-77
2021/10/29 11:10:10;;;;;;;24.30;21.80;;;;;;;15.76;48.46;99687.22;5094427;28;20214;-76
2021/10/29 11:12:41;;;;;;;25.83;23.23;;;;;;;15.78;48.39;99685.88;5083361;28;20229;-85
2021/10/29 11:15:09;;;;;;;26.67;23.77;;;;;;;15.88;48.27;99685.19;5078796;28;20238;-83
2021/10/29 11:18:14;;;;;;;26.97;23.00;;;;;;;15.85;48.15;99694.63;5078295;28;20227;-85
2021/10/29 11:21:20;;;;;;;26.30;23.60;;;;;;;15.79;47.97;99692.94;5118438;23;20236;-76
2021/10/29 11:23:52;;;;;;;26.03;23.27;;;;;;;15.94;48.59;99692.28;5111024;28;20256;-84
2021/10/29 11:26:21;;;;;;;25.47;22.87;;;;;;;15.90;48.32;99693.88;5093631;28;20222;-85
2021/10/29 11:28:51;;;;;;;24.83;22.27;;;;;;;15.79;47.66;99689.41;5108014;28;20681;-78
2021/10/29 11:31:51;;;;;;;26.00;23.30;;;;;;;15.90;48.13;99679.53;5120168;22;20236;-80
2021/10/29 11:34:19;;;;;;;25.83;23.03;;;;;;;15.94;47.91;99678.78;5088629;28;20217;-86
2021/10/29 11:36:52;;;;;;;26.03;23.27;;;;;;;15.98;47.75;99674.50;5078063;28;20323;-84
2021/10/29 11:39:21;;;;;;;25.10;22.63;;;;;;;16.11;48.01;99690.31;5093029;28;20629;-86
2021/10/29 11:41:51;;;;;;;25.70;23.10;;;;;;;16.01;47.67;99673.97;5078777;28;20233;-85
2021/10/29 11:44:20;;;;;;;25.60;22.93;;;;;;;16.00;47.56;99671.56;5082965;28;20233;-84
2021/10/29 11:46:48;;;;;;;24.43;22.07;;;;;;;16.03;47.74;99674.56;5098130;28;20643;-85
2021/10/29 11:49:24;;;;;;;25.40;22.80;;;;;;;16.01;47.51;99663.19;5082996;28;20226;-80
2021/10/29 11:51:59;;;;;;;25.83;23.10;;;;;;;16.03;47.80;99671.03;5088290;28;20228;-83
2021/10/29 11:54:30;;;;;;;25.50;22.93;;;;;;;16.07;47.50;99662.16;5107839;28;20224;-81
2021/10/29 12:05:53;;;;;;;25.10;22.70;;;;;;;16.08;47.79;99657.59;5098034;28;20295;-81
2021/10/29 12:08:22;;;;;;;24.37;21.87;;;;;;;16.11;47.91;99657.88;5077216;28;20271;-88
2021/10/29 12:10:51;;;;;;;23.93;21.40;;;;;;;16.11;47.02;99643.56;5041316;28;20272;-85
2021/10/29 12:13:18;;;;;;;24.20;21.83;;;;;;;16.25;47.15;99636.66;5041776;28;20288;-85
2021/10/29 12:15:45;;;;;;;24.77;21.77;;;;;;;16.30;46.82;99645.63;5041542;28;20241;-86
2021/10/29 12:18:13;;;;;;;24.10;21.70;;;;;;;16.36;46.48;99630.28;5041212;28;20243;-86
2021/10/29 12:20:47;;;;;;;23.53;21.07;;;;;;;16.30;46.06;99634.00;5057664;28;20336;-84
2021/10/29 12:23:26;;;;;;;24.30;21.70;;;;;;;16.37;46.76;99631.91;5041870;28;20226;-87
2021/10/29 12:26:06;;;;;;;23.30;20.93;;;;;;;16.38;45.99;99621.94;5076232;28;20214;-85
2021/10/29 12:28:39;;;;;;;23.70;21.27;;;;;;;16.26;46.38;99625.59;5070319;28;20620;-85
2021/10/29 12:31:26;;;;;;;23.30;20.50;;;;;;;16.33;45.88;99619.19;5057781;28;20236;-86
2021/10/29 12:37:27;;;;;;;22.97;20.63;;;;;;;16.32;45.85;99614.84;5080142;28;20232;-84
2021/10/29 12:58:50;;;;;;;21.50;19.30;;;;;;;16.43;45.44;99601.13;5000995;28;20604;-87
2021/10/29 13:03:24;;;;;;;20.90;18.83;;;;;;;16.42;45.02;99591.41;5084523;28;20224;-81
2021/10/29 13:05:56;;;;;;;20.10;17.73;;;;;;;16.40;44.89;99588.13;5079273;28;20258;-82
2021/10/29 13:08:24;;;;;;;20.43;18.33;;;;;;;16.37;44.84;99580.56;5061371;28;20230;-86
2021/10/29 13:10:56;;;;;;;21.20;17.90;;;;;;;16.45;44.89;99585.47;5062117;28;20250;-88
2021/10/29 13:16:12;;;;;;;19.90;17.80;;;;;;;16.42;44.49;99579.78;5063520;28;20588;-87
2021/10/29 13:24:47;;;;;;;20.40;18.00;;;;;;;16.19;44.88;99562.81;5062824;28;20539;-88
2021/10/29 13:34:21;;;;;;;19.47;17.47;;;;;;;16.34;44.80;99574.81;5062749;28;20230;-88
2021/10/29 13:37:30;;;;;;;21.40;19.13;;;;;;;16.10;45.47;99567.06;5078625;28;20318;-85
2021/10/29 13:54:59;;;;;;;20.40;18.40;;;;;;;15.67;46.54;99570.72;5053726;28;20242;-78
2021/10/29 14:30:40;;;;;;;20.17;17.43;;;;;;;14.78;47.25;99543.16;5056664;22;20307;-77
2021/10/29 14:34:16;;;;;;;18.63;16.37;;;;;;;14.71;47.29;99557.84;5110278;22;20204;-77
2021/10/29 14:37:45;;;;;;;18.70;16.73;;;;;;;14.59;47.60;99560.66;5093466;22;20251;-77
2021/10/29 14:40:24;;;;;;;19.27;17.30;;;;;;;14.38;47.70;99556.81;5073062;22;20245;-77
2021/10/29 14:46:49;;;;;;;19.17;17.20;;;;;;;14.20;48.12;99567.00;5087127;22;20233;-77
2021/10/29 14:52:35;;;;;;;18.20;16.50;;;;;;;13.96;48.69;99552.84;5117890;22;20240;-77
2021/10/29 15:29:59;;;;;;;21.47;19.27;;;;;;;12.45;52.49;99529.09;5050073;23;20243;-78
2021/10/29 15:45:42;;;;;;;24.77;21.67;;;;;;;12.02;54.10;99540.97;5045481;23;20216;-77
2021/10/29 15:48:42;;;;;;;24.03;21.57;;;;;;;12.00;54.71;99537.69;5104649;22;20227;-77
2021/10/29 15:52:11;;;;;;;40.63;36.57;;;;;;;11.88;55.09;99548.41;5098028;22;20220;-77
2021/10/29 15:55:02;;;;;;;25.83;23.23;;;;;;;11.83;55.32;99539.41;5183654;22;20234;-77
2021/10/29 15:58:30;;;;;;;25.27;22.73;;;;;;;11.80;55.22;99550.59;5177783;22;20236;-79
2021/10/29 16:01:37;;;;;;;22.60;20.27;;;;;;;11.54;56.09;99549.06;5096421;28;20208;-77
2021/10/29 16:19:55;;;;;;;26.83;22.03;;;;;;;11.23;58.13;99562.69;5068149;23;20205;-80
2021/10/29 16:22:25;;;;;;;25.47;22.33;;;;;;;11.26;58.01;99572.97;5086213;23;20551;-79
2021/10/29 16:25:19;;;;;;;25.13;22.53;;;;;;;11.26;58.16;99575.66;5076362;22;20228;-79
2021/10/29 16:28:11;;;;;;;25.40;22.33;;;;;;;11.15;58.29;99563.00;5102830;22;20213;-78
2021/10/29 16:31:13;;;;;;;25.83;23.23;;;;;;;11.19;58.38;99577.59;5101849;22;20263;-79
2021/10/29 16:34:00;;;;;;;27.97;25.10;;;;;;;11.11;58.72;99581.38;5101752;22;20295;-79
2021/10/29 16:37:22;;;;;;;37.93;32.40;;;;;;;11.15;58.83;99571.06;5092998;23;20224;-79
2021/10/29 16:39:52;;;;;;;30.10;26.87;;;;;;;11.08;58.74;99575.66;5050465;23;20251;-78
2021/10/29 16:42:30;;;;;;;31.10;26.70;;;;;;;11.18;58.88;99571.41;5064213;23;20247;-79
2021/10/29 16:45:33;;;;;;;30.43;26.37;;;;;;;11.27;58.48;99575.44;5152490;22;20210;-80
2021/10/29 16:51:35;;;;;;;47.63;34.27;;;;;;;11.23;58.47;99578.78;5063878;23;20221;-79
2021/10/29 16:54:53;;;;;;;32.07;26.90;;;;;;;11.17;58.52;99569.78;5067902;23;20209;-79
2021/10/29 16:57:40;;;;;;;31.47;28.23;;;;;;;11.28;58.67;99573.56;5097446;22;20220;-79
2021/10/29 17:00:21;;;;;;;32.30;28.93;;;;;;;11.17;59.04;99579.69;5120982;22;20232;-79
2021/10/29 17:03:18;;;;;;;29.00;24.00;;;;;;;10.99;59.02;99554.53;5072564;23;20273;-80
2021/10/29 17:05:58;;;;;;;25.47;22.90;;;;;;;11.11;59.24;99567.16;5075313;23;20257;-79
2021/10/29 17:15:18;;;;;;;25.43;22.73;;;;;;;11.00;59.19;99560.69;5063560;23;20232;-79
2021/10/29 17:18:27;;;;;;;25.73;22.97;;;;;;;11.13;59.27;99586.53;5114111;22;20275;-79
2021/10/29 17:21:35;;;;;;;25.30;22.27;;;;;;;11.10;59.10;99581.63;5089423;22;20235;-79
2021/10/29 17:24:31;;;;;;;24.80;22.13;;;;;;;10.93;59.40;99555.41;5126800;22;20246;-78
2021/10/29 17:27:40;;;;;;;26.87;23.60;;;;;;;11.00;59.43;99579.47;5112744;22;20211;-79
2021/10/29 17:30:55;;;;;;;24.40;21.80;;;;;;;10.89;59.33;99572.97;5137537;22;22899;-79
2021/10/29 17:33:38;;;;;;;23.03;20.53;;;;;;;10.74;58.87;99545.72;5113753;22;20276;-79
2021/10/29 17:37:15;;;;;;;21.23;19.03;;;;;;;11.00;58.22;99582.97;5202979;22;20208;-79
2021/10/29 17:40:24;;;;;;;22.60;20.13;;;;;;;11.00;57.93;99574.94;5078144;23;20221;-79
2021/10/29 17:43:19;;;;;;;21.00;18.80;;;;;;;10.98;57.71;99570.81;5108714;22;20258;-79
2021/10/29 17:46:05;;;;;;;31.47;25.97;;;;;;;10.98;57.93;99582.38;5120486;22;20223;-80
2021/10/29 17:48:43;;;;;;;23.63;21.23;;;;;;;10.90;57.86;99574.63;5134709;22;20228;-79
2021/10/29 17:51:37;;;;;;;22.50;19.43;;;;;;;10.94;57.72;99575.81;5155495;22;20214;-79
2021/10/29 17:54:30;;;;;;;20.00;17.87;;;;;;;11.00;57.43;99580.28;5095525;23;21324;-80
2021/10/29 17:57:39;;;;;;;21.27;18.93;;;;;;;10.97;57.27;99569.19;5087934;28;20193;-79
2021/10/29 18:00:20;;;;;;;19.53;17.53;;;;;;;10.86;57.30;99559.22;5153526;23;20208;-79
2021/10/29 18:03:14;;;;;;;21.00;18.83;;;;;;;10.99;57.01;99567.09;5100901;23;20201;-79
2021/10/29 18:06:30;;;;;;;20.17;18.03;;;;;;;10.98;57.21;99574.31;5127738;22;20263;-79
2021/10/29 18:10:32;;;;;;;21.70;19.50;;;;;;;10.95;57.07;99582.81;5145365;22;20264;-79
2021/10/29 18:13:38;;;;;;;43.17;35.40;;;;;;;10.84;57.35;99578.19;5122957;22;20238;-79
2021/10/29 18:16:30;;;;;;;40.53;31.90;;;;;;;10.87;57.82;99580.41;5088776;23;20215;-79